Time;durP1;ratioP1;P1;durP2;ratioP2;P2;SDS_P1;SDS_P2;PMS_P1;PMS_P2;Temp;Humidity;BMP_temperature;BMP_pressure;BME280_temperature;BME280_humidity;BME280_pressure;Samples;Min_cycle;Max_cycle;Signal;HPM_P1;HPM_P2
2022/03/09 00:02:26;;;;;;;;;;;13.20;74.80;;;;;;5187719;28;19991;-31
2022/03/09 00:04:57;;;;;;;;;;;13.20;74.90;;;;;;5187359;28;20437;-30
2022/03/09 00:07:28;;;;;;;;;;;13.20;74.90;;;;;;5187287;28;19925;-30
2022/03/09 00:09:59;;;;;;;;;;;13.20;74.80;;;;;;5187206;28;19922;-32
2022/03/09 00:12:30;;;;;;;;;;;13.20;74.90;;;;;;5169627;28;19921;-31
2022/03/09 00:15:01;;;;;;;;;;;13.20;75.00;;;;;;5187006;28;19976;-31
2022/03/09 00:17:32;;;;;;;;;;;13.20;75.20;;;;;;5187081;28;20433;-33
2022/03/09 00:20:03;;;;;;;;;;;13.20;75.20;;;;;;5187249;28;19984;-34
2022/03/09 00:22:34;;;;;;;;;;;13.30;75.20;;;;;;5187087;28;19926;-33
2022/03/09 00:25:06;;;;;;;;;;;13.30;75.40;;;;;;5189103;28;20379;-30
2022/03/09 00:27:36;;;;;;;;;;;13.30;75.40;;;;;;5190211;28;19922;-30
2022/03/09 00:30:07;;;;;;;;;;;13.30;75.50;;;;;;5190036;28;19921;-30
2022/03/09 00:32:39;;;;;;;;;;;13.30;75.50;;;;;;5191075;28;19921;-33
2022/03/09 00:35:10;;;;;;;;;;;13.20;75.50;;;;;;5190896;28;19944;-30
2022/03/09 00:37:41;;;;;;;;;;;13.30;75.50;;;;;;5190739;28;20020;-30
2022/03/09 00:40:12;;;;;;;;;;;13.20;75.90;;;;;;5190994;28;20275;-30
2022/03/09 00:42:44;;;;;;;;;;;13.20;75.30;;;;;;5189796;28;19925;-33
2022/03/09 00:45:15;;;;;;;;;;;13.30;75.40;;;;;;5190694;28;20397;-31
2022/03/09 00:47:46;;;;;;;;;;;13.20;75.20;;;;;;5199228;28;19925;-30
2022/03/09 00:50:17;;;;;;;;;;;13.20;75.20;;;;;;5211230;28;19921;-31
2022/03/09 00:52:48;;;;;;;;;;;13.20;75.20;;;;;;5193549;28;19928;-31
2022/03/09 00:55:19;;;;;;;;;;;13.30;75.30;;;;;;5211252;28;20278;-33
2022/03/09 00:57:49;;;;;;;;;;;13.30;75.30;;;;;;5210727;28;19922;-30
2022/03/09 01:00:21;;;;;;;;;;;13.30;75.00;;;;;;5210751;28;20378;-31
2022/03/09 01:02:51;;;;;;;;;;;13.30;74.90;;;;;;5210868;28;19925;-33
2022/03/09 01:05:22;;;;;;;;;;;13.20;74.90;;;;;;5193106;28;20358;-30
2022/03/09 01:07:53;;;;;;;;;;;13.30;74.90;;;;;;5210766;28;19921;-31
2022/03/09 01:10:24;;;;;;;;;;;13.30;74.90;;;;;;5192906;28;19925;-31
2022/03/09 01:12:55;;;;;;;;;;;13.30;74.80;;;;;;5210733;28;19921;-30
2022/03/09 01:15:26;;;;;;;;;;;13.20;74.60;;;;;;5193413;28;19921;-31
2022/03/09 01:17:57;;;;;;;;;;;13.30;74.50;;;;;;5210316;28;20385;-31
2022/03/09 01:20:28;;;;;;;;;;;13.20;74.30;;;;;;5210627;28;19967;-30
2022/03/09 01:22:58;;;;;;;;;;;13.30;74.30;;;;;;5192660;28;19921;-31
2022/03/09 01:25:29;;;;;;;;;;;13.20;74.20;;;;;;5209953;28;19920;-31
2022/03/09 01:28:00;;;;;;;;;;;13.20;73.90;;;;;;5210367;28;19920;-31
2022/03/09 01:30:31;;;;;;;;;;;13.30;73.80;;;;;;5210126;28;19921;-31
2022/03/09 01:33:02;;;;;;;;;;;13.30;73.70;;;;;;5210486;28;19921;-30
2022/03/09 01:35:33;;;;;;;;;;;13.30;73.50;;;;;;5192447;28;19921;-31
2022/03/09 01:38:04;;;;;;;;;;;13.20;73.40;;;;;;5209896;28;20329;-30
2022/03/09 01:40:35;;;;;;;;;;;13.20;73.30;;;;;;5210490;28;19921;-30
2022/03/09 01:43:06;;;;;;;;;;;13.20;73.20;;;;;;5210295;28;19921;-34
2022/03/09 01:45:37;;;;;;;;;;;13.20;73.30;;;;;;5209808;28;19921;-31
2022/03/09 01:48:08;;;;;;;;;;;13.20;73.30;;;;;;5209889;28;20286;-31
2022/03/09 01:50:39;;;;;;;;;;;13.30;73.10;;;;;;5208400;28;19928;-30
2022/03/09 01:53:10;;;;;;;;;;;13.20;73.00;;;;;;5192293;28;20275;-32
2022/03/09 01:55:41;;;;;;;;;;;13.30;72.90;;;;;;5209915;28;19921;-31
2022/03/09 01:58:12;;;;;;;;;;;13.20;72.70;;;;;;5209643;28;19928;-35
2022/03/09 02:00:43;;;;;;;;;;;13.20;72.60;;;;;;5209833;28;19932;-30
2022/03/09 02:03:14;;;;;;;;;;;13.30;72.60;;;;;;5176054;28;19921;-30
2022/03/09 02:05:44;;;;;;;;;;;13.20;72.50;;;;;;5209817;28;19932;-33
2022/03/09 02:11:05;;;;;;;;;;;13.20;72.40;;;;;;5209281;28;20306;-29
2022/03/09 02:13:38;;;;;;;;;;;13.30;72.40;;;;;;5209599;28;19921;-31
2022/03/09 02:16:12;;;;;;;;;;;13.20;72.10;;;;;;5191859;28;20317;-31
2022/03/09 02:18:43;;;;;;;;;;;13.20;72.00;;;;;;5209588;28;19963;-30
2022/03/09 02:21:15;;;;;;;;;;;13.20;72.00;;;;;;5209538;28;19924;-32
2022/03/09 02:23:46;;;;;;;;;;;13.30;72.00;;;;;;5192018;28;19921;-31
2022/03/09 02:26:17;;;;;;;;;;;13.20;71.80;;;;;;5192053;28;20282;-30
2022/03/09 02:28:48;;;;;;;;;;;13.20;71.70;;;;;;5191606;28;19921;-30
2022/03/09 02:31:18;;;;;;;;;;;13.30;71.70;;;;;;5209352;28;19957;-33
2022/03/09 02:33:49;;;;;;;;;;;13.20;71.70;;;;;;5208944;28;19971;-30
2022/03/09 02:36:20;;;;;;;;;;;13.20;71.60;;;;;;5208930;28;20251;-30
2022/03/09 02:38:51;;;;;;;;;;;13.20;71.60;;;;;;5209184;28;19921;-30
2022/03/09 02:41:22;;;;;;;;;;;13.20;71.50;;;;;;5208968;28;20430;-29
2022/03/09 02:43:53;;;;;;;;;;;13.20;71.40;;;;;;5209103;28;20007;-33
2022/03/09 02:46:24;;;;;;;;;;;13.20;71.30;;;;;;5208728;28;19929;-30
2022/03/09 02:48:55;;;;;;;;;;;13.20;71.30;;;;;;5187186;28;19921;-35
2022/03/09 02:51:26;;;;;;;;;;;13.20;71.30;;;;;;5187221;28;19972;-30
2022/03/09 02:53:57;;;;;;;;;;;13.20;71.30;;;;;;5188152;28;19921;-32
2022/03/09 02:56:28;;;;;;;;;;;13.30;71.20;;;;;;5188373;28;19960;-33
2022/03/09 02:58:59;;;;;;;;;;;13.20;71.10;;;;;;5187691;28;19995;-34
2022/03/09 03:01:30;;;;;;;;;;;13.30;71.00;;;;;;5188322;28;19928;-32
2022/03/09 03:04:01;;;;;;;;;;;13.20;70.90;;;;;;5188342;28;20367;-30
2022/03/09 03:06:32;;;;;;;;;;;13.20;70.80;;;;;;5187151;28;19921;-31
2022/03/09 03:09:03;;;;;;;;;;;13.20;70.80;;;;;;5188072;28;19956;-32
2022/03/09 03:11:34;;;;;;;;;;;13.20;70.80;;;;;;5188445;28;20341;-35
2022/03/09 03:14:04;;;;;;;;;;;13.30;70.90;;;;;;5188052;28;20028;-31
2022/03/09 03:16:35;;;;;;;;;;;13.20;70.80;;;;;;5187896;28;19979;-31
2022/03/09 03:19:06;;;;;;;;;;;13.20;71.00;;;;;;5187664;28;19976;-30
2022/03/09 03:21:37;;;;;;;;;;;13.30;70.90;;;;;;5186756;28;19937;-29
2022/03/09 03:24:08;;;;;;;;;;;13.20;70.80;;;;;;5187923;28;19944;-29
2022/03/09 03:26:39;;;;;;;;;;;13.30;70.70;;;;;;5186720;28;19921;-31
2022/03/09 03:29:10;;;;;;;;;;;13.30;70.70;;;;;;5186495;28;19976;-30
2022/03/09 03:31:41;;;;;;;;;;;13.20;70.60;;;;;;5187778;28;19960;-32
2022/03/09 03:34:12;;;;;;;;;;;13.30;70.60;;;;;;5187718;28;19952;-33
2022/03/09 03:36:43;;;;;;;;;;;13.20;70.50;;;;;;5187304;28;19925;-31
2022/03/09 03:39:14;;;;;;;;;;;13.20;70.50;;;;;;5187734;28;19979;-31
2022/03/09 03:41:45;;;;;;;;;;;13.20;70.50;;;;;;5187666;28;19928;-30
2022/03/09 03:44:16;;;;;;;;;;;13.30;70.60;;;;;;5186400;28;19921;-30
2022/03/09 03:46:47;;;;;;;;;;;13.30;70.40;;;;;;5187870;28;19928;-31
2022/03/09 03:49:18;;;;;;;;;;;13.20;70.30;;;;;;5208255;28;19920;-31
2022/03/09 03:51:49;;;;;;;;;;;13.20;70.40;;;;;;5207590;28;19920;-31
2022/03/09 03:54:19;;;;;;;;;;;13.30;70.40;;;;;;5190406;28;19936;-30
2022/03/09 03:56:50;;;;;;;;;;;13.30;70.40;;;;;;5207675;28;19932;-33
2022/03/09 03:59:21;;;;;;;;;;;13.30;70.50;;;;;;5207229;28;19930;-30
2022/03/09 04:01:52;;;;;;;;;;;13.30;70.60;;;;;;5190282;28;19951;-32
2022/03/09 04:04:23;;;;;;;;;;;13.30;70.70;;;;;;5206851;28;19921;-34
2022/03/09 04:06:54;;;;;;;;;;;13.30;70.70;;;;;;5207697;28;19932;-33
2022/03/09 04:09:25;;;;;;;;;;;13.30;70.70;;;;;;5206693;28;19928;-30
2022/03/09 04:11:56;;;;;;;;;;;13.20;70.60;;;;;;5190108;28;19928;-33
2022/03/09 04:14:27;;;;;;;;;;;13.30;70.60;;;;;;5189784;28;19928;-34
2022/03/09 04:16:58;;;;;;;;;;;13.30;70.50;;;;;;5207435;28;19921;-30
2022/03/09 04:19:28;;;;;;;;;;;13.30;70.40;;;;;;5207303;28;20349;-30
2022/03/09 04:21:59;;;;;;;;;;;13.30;70.30;;;;;;5207592;28;19975;-35
2022/03/09 04:24:30;;;;;;;;;;;13.30;70.50;;;;;;5207602;28;19925;-31
2022/03/09 04:27:01;;;;;;;;;;;13.30;70.50;;;;;;5189797;28;19928;-33
2022/03/09 04:29:32;;;;;;;;;;;13.30;70.40;;;;;;5206706;28;19921;-31
2022/03/09 04:32:04;;;;;;;;;;;13.30;70.40;;;;;;5208080;28;20275;-32
2022/03/09 04:34:34;;;;;;;;;;;13.30;70.30;;;;;;5207194;28;19956;-31
2022/03/09 04:37:06;;;;;;;;;;;13.30;70.10;;;;;;5207475;28;19921;-30
2022/03/09 04:39:36;;;;;;;;;;;13.30;70.00;;;;;;5207148;28;20298;-30
2022/03/09 04:42:08;;;;;;;;;;;13.30;69.90;;;;;;5207426;28;19974;-34
2022/03/09 04:44:38;;;;;;;;;;;13.30;69.80;;;;;;5207203;28;19992;-30
2022/03/09 04:47:09;;;;;;;;;;;13.30;69.70;;;;;;5207211;28;19921;-30
2022/03/09 04:49:40;;;;;;;;;;;13.30;69.60;;;;;;5207727;28;20326;-31
2022/03/09 04:52:11;;;;;;;;;;;13.30;69.50;;;;;;5207167;28;19928;-32
2022/03/09 04:54:42;;;;;;;;;;;13.30;69.50;;;;;;5189558;28;19921;-30
2022/03/09 04:57:13;;;;;;;;;;;13.30;69.50;;;;;;5207114;28;19943;-35
2022/03/09 04:59:44;;;;;;;;;;;13.30;69.40;;;;;;5207145;28;19925;-30
2022/03/09 05:02:15;;;;;;;;;;;13.20;69.20;;;;;;5207288;28;20370;-31
2022/03/09 05:04:46;;;;;;;;;;;13.30;69.20;;;;;;5206863;28;19927;-31
2022/03/09 05:07:17;;;;;;;;;;;13.30;69.10;;;;;;5207090;28;19947;-31
2022/03/09 05:09:48;;;;;;;;;;;13.30;69.10;;;;;;5207152;28;19933;-30
2022/03/09 05:12:19;;;;;;;;;;;13.20;68.80;;;;;;5208695;28;19940;-29
2022/03/09 05:14:50;;;;;;;;;;;13.30;68.80;;;;;;5205666;28;19925;-29
2022/03/09 05:17:21;;;;;;;;;;;13.30;68.80;;;;;;5197227;28;19932;-31
2022/03/09 05:19:53;;;;;;;;;;;13.30;68.80;;;;;;5193363;28;19928;-31
2022/03/09 05:22:24;;;;;;;;;;;13.30;69.00;;;;;;5190178;28;19925;-29
2022/03/09 05:24:55;;;;;;;;;;;13.40;68.60;;;;;;5203254;28;19976;-30
2022/03/09 05:27:27;;;;;;;;;;;13.60;68.40;;;;;;5197582;28;19929;-30
2022/03/09 05:29:58;;;;;;;;;;;13.70;68.00;;;;;;5207939;28;19920;-31
2022/03/09 05:32:29;;;;;;;;;;;13.80;67.80;;;;;;5207543;28;19921;-29
2022/03/09 05:35:00;;;;;;;;;;;14.00;67.70;;;;;;5197655;28;19921;-32
2022/03/09 05:37:37;;;;;;;;;;;14.10;67.50;;;;;;5197972;28;20260;-29
2022/03/09 05:40:09;;;;;;;;;;;14.20;67.90;;;;;;5185972;28;19929;-32
2022/03/09 05:42:40;;;;;;;;;;;14.40;69.10;;;;;;5197128;28;19987;-32
2022/03/09 05:45:12;;;;;;;;;;;14.50;67.50;;;;;;5201054;28;20424;-30
2022/03/09 05:47:43;;;;;;;;;;;14.50;67.20;;;;;;5169867;28;20283;-30
2022/03/09 05:50:14;;;;;;;;;;;14.60;67.20;;;;;;5187102;28;19925;-31
2022/03/09 05:52:45;;;;;;;;;;;14.60;67.30;;;;;;5187239;28;19957;-30
2022/03/09 05:55:16;;;;;;;;;;;14.60;67.40;;;;;;5186896;28;20354;-30
2022/03/09 05:57:47;;;;;;;;;;;14.60;67.60;;;;;;5186969;28;19968;-30
2022/03/09 06:00:17;;;;;;;;;;;14.60;67.80;;;;;;5187057;28;19968;-31
2022/03/09 06:02:48;;;;;;;;;;;14.60;67.90;;;;;;5187088;28;19982;-34
2022/03/09 06:05:19;;;;;;;;;;;14.60;68.10;;;;;;5186835;28;19925;-30
2022/03/09 06:07:50;;;;;;;;;;;14.50;68.20;;;;;;5186966;28;19925;-32
2022/03/09 06:10:21;;;;;;;;;;;14.50;68.40;;;;;;5186796;28;19935;-30
2022/03/09 06:12:52;;;;;;;;;;;14.50;68.60;;;;;;5187154;28;19921;-30
2022/03/09 06:15:23;;;;;;;;;;;14.50;69.30;;;;;;5186830;28;20440;-30
2022/03/09 06:17:54;;;;;;;;;;;14.50;74.10;;;;;;5186886;28;19945;-30
2022/03/09 06:20:28;;;;;;;;;;;14.20;69.50;;;;;;5186776;28;19921;-30
2022/03/09 06:22:59;;;;;;;;;;;12.70;72.00;;;;;;5186267;28;19972;-31
2022/03/09 06:25:30;;;;;;;;;;;11.80;73.60;;;;;;5186900;28;20465;-30
2022/03/09 06:28:01;;;;;;;;;;;11.30;75.30;;;;;;5185638;28;19932;-29
2022/03/09 06:30:32;;;;;;;;;;;11.00;76.20;;;;;;5186668;28;19922;-30
2022/03/09 06:33:04;;;;;;;;;;;10.90;77.00;;;;;;5186642;28;19932;-33
2022/03/09 06:35:34;;;;;;;;;;;10.70;77.30;;;;;;5185261;28;19929;-30
2022/03/09 06:38:05;;;;;;;;;;;10.60;77.70;;;;;;5186483;28;19968;-34
2022/03/09 06:40:36;;;;;;;;;;;10.50;78.30;;;;;;5187456;28;19990;-32
2022/03/09 06:43:07;;;;;;;;;;;10.40;78.90;;;;;;5188443;28;19922;-31
2022/03/09 06:45:38;;;;;;;;;;;10.30;79.00;;;;;;5171189;28;20382;-32
2022/03/09 06:48:10;;;;;;;;;;;10.10;79.50;;;;;;5187220;28;20442;-32
2022/03/09 06:50:40;;;;;;;;;;;10.00;80.00;;;;;;5187306;28;20015;-32
2022/03/09 06:53:11;;;;;;;;;;;9.90;80.20;;;;;;5170224;28;19929;-30
2022/03/09 06:55:42;;;;;;;;;;;9.80;80.40;;;;;;5188345;28;19922;-32
2022/03/09 06:58:13;;;;;;;;;;;9.80;80.90;;;;;;5188452;28;19922;-32
2022/03/09 07:00:44;;;;;;;;;;;9.70;81.30;;;;;;5188499;28;19944;-32
2022/03/09 07:04:13;;;;;;;;;;;9.70;82.00;;;;;;5310196;27;19916;-30
2022/03/09 07:06:44;;;;;;;;;;;9.70;82.10;;;;;;5309928;27;19942;-31
2022/03/09 07:09:15;;;;;;;;;;;9.70;82.50;;;;;;5309548;28;19920;-35
2022/03/09 07:11:48;;;;;;;;;;;9.70;82.50;;;;;;5309444;28;19924;-40
2022/03/09 07:14:20;;;;;;;;;;;9.60;82.80;;;;;;5309502;27;19930;-35
2022/03/09 07:16:51;;;;;;;;;;;9.60;82.90;;;;;;5309142;27;19919;-33
2022/03/09 07:19:22;;;;;;;;;;;9.60;82.90;;;;;;5309263;27;19920;-37
2022/03/09 07:21:54;;;;;;;22.50;17.80;;;9.60;83.20;;;;;;5308938;28;19923;-31
2022/03/09 07:24:25;;;;;;;21.33;17.00;;;9.70;83.50;;;;;;5308032;28;20501;-32
2022/03/09 07:26:56;;;;;;;23.33;16.53;;;9.70;83.30;;;;;;5307596;28;20389;-34
2022/03/09 07:29:27;;;;;;;23.37;17.90;;;9.80;83.00;;;;;;5308709;27;20046;-33
2022/03/09 07:31:58;;;;;;;22.20;16.50;;;9.90;83.50;;;;;;5308674;28;20043;-38
2022/03/09 07:34:29;;;;;;;22.90;17.27;;;9.90;82.90;;;;;;5308652;27;20043;-36
2022/03/09 07:37:01;;;;;;;25.30;19.90;;;10.00;82.80;;;;;;5307489;28;20036;-33
2022/03/09 07:39:32;;;;;;;21.87;17.67;;;10.10;82.80;;;;;;5308544;28;20050;-35
2022/03/09 07:42:03;;;;;;;26.53;19.43;;;10.10;82.50;;;;;;5308315;27;20119;-29
2022/03/09 07:44:34;;;;;;;26.77;20.53;;;10.10;82.70;;;;;;5308404;28;20043;-32
2022/03/09 07:47:05;;;;;;;24.57;19.00;;;10.10;83.00;;;;;;5307129;28;20039;-31
2022/03/09 07:49:37;;;;;;;25.00;19.87;;;10.10;82.90;;;;;;5308390;27;20472;-31
2022/03/09 07:52:08;;;;;;;31.20;21.83;;;10.00;82.90;;;;;;5308239;27;20051;-31
2022/03/09 07:54:39;;;;;;;55.87;40.40;;;10.00;83.30;;;;;;5306841;28;20047;-33
2022/03/09 07:57:10;;;;;;;25.93;19.83;;;10.00;83.60;;;;;;5308121;27;20084;-37
2022/03/09 07:59:42;;;;;;;24.93;19.73;;;9.90;83.60;;;;;;5308132;27;20422;-31
2022/03/09 08:02:16;;;;;;;34.37;24.43;;;9.90;84.10;;;;;;5312933;27;20398;-29
2022/03/09 08:04:47;;;;;;;26.73;21.33;;;9.90;84.10;;;;;;5329074;27;20043;-31
2022/03/09 08:07:18;;;;;;;97.23;86.53;;;9.80;84.10;;;;;;5329187;27;20072;-37
2022/03/09 08:09:49;;;;;;;39.33;31.73;;;9.90;84.60;;;;;;5310913;27;20042;-36
2022/03/09 08:12:20;;;;;;;91.93;72.03;;;9.80;84.90;;;;;;5329180;27;20441;-31
2022/03/09 08:14:52;;;;;;;31.53;24.83;;;9.80;84.90;;;;;;5316660;27;20050;-37
2022/03/09 08:17:24;;;;;;;26.17;19.48;;;9.80;85.30;;;;;;5296433;27;20039;-34
2022/03/09 08:19:55;;;;;;;24.57;17.87;;;9.70;85.60;;;;;;5296351;27;20480;-31
2022/03/09 08:22:29;;;;;;;24.17;19.73;;;9.80;85.90;;;;;;5296406;27;20391;-39
2022/03/09 08:25:23;;;;;;;25.30;20.07;;;9.80;86.10;;;;;;5296146;27;20149;-30
2022/03/09 08:27:54;;;;;;;;;;;9.70;86.20;;;;;;5297885;27;20096;-29
2022/03/09 08:30:26;;;;;;;27.90;22.47;;;9.70;86.40;;;;;;5269347;28;19965;-37
2022/03/09 08:32:57;;;;;;;23.70;20.20;;;9.70;86.40;;;;;;5269266;28;20101;-33
2022/03/09 08:35:28;;;;;;;27.10;23.27;;;9.70;86.70;;;;;;5252012;28;20064;-37
2022/03/09 08:38:00;;;;;;;;;;;9.70;87.00;;;;;;5270005;28;20397;-31
2022/03/09 08:40:30;;;;;;;;;;;10.10;86.80;;;;;;5269405;28;19920;-32
2022/03/09 08:43:01;;;;;;;;;;;10.50;85.20;;;;;;5269597;28;19948;-28
2022/03/09 08:45:32;;;;;;;;;;;10.80;84.20;;;;;;5267156;28;20005;-38
2022/03/09 08:48:28;;;;;;;;;;;11.20;83.40;;;;;;5281214;27;19919;-32
2022/03/09 08:50:59;;;;;;;;;;;11.40;82.60;;;;;;5313924;27;20018;-31
2022/03/09 08:53:31;;;;;;;;;;;11.70;82.10;;;;;;5310502;27;19969;-29
2022/03/09 08:56:02;;;;;;;;;;;11.90;81.60;;;;;;5301821;27;19920;-38
2022/03/09 08:58:34;;;;;;;;;;;12.00;81.00;;;;;;5294341;27;19926;-37
2022/03/09 09:01:05;;;;;;;;;;;12.20;80.80;;;;;;5313991;27;20010;-31
2022/03/09 09:03:36;;;;;;;;;;;12.30;80.50;;;;;;5313878;27;19944;-33
2022/03/09 09:06:07;;;;;;;;;;;12.40;80.20;;;;;;5313534;27;19919;-33
2022/03/09 09:08:38;;;;;;;;;;;12.50;80.10;;;;;;5314152;27;19976;-37
2022/03/09 09:11:12;;;;;;;;;;;12.60;79.90;;;;;;5295663;27;19920;-37
2022/03/09 09:13:43;;;;;;;;;;;12.70;79.80;;;;;;5313504;27;19920;-35
2022/03/09 09:16:14;;;;;;;;;;;12.70;79.60;;;;;;5313991;27;19920;-28
2022/03/09 09:18:45;;;;;;;;;;;12.80;79.60;;;;;;5313942;27;19919;-37
2022/03/09 09:21:16;;;;;;;20.40;16.05;;;12.80;79.40;;;;;;5313613;27;19927;-32
2022/03/09 09:23:47;;;;;;;;;;;12.90;79.40;;;;;;5295606;27;19951;-33
2022/03/09 09:26:18;;;;;;;;;;;13.00;79.40;;;;;;5294077;27;19966;-29
2022/03/09 09:28:49;;;;;;;;;;;13.00;79.20;;;;;;5313881;27;20390;-29
2022/03/09 09:31:20;;;;;;;;;;;13.00;79.00;;;;;;5313904;27;19923;-30
2022/03/09 09:33:51;;;;;;;;;;;13.10;79.00;;;;;;5313618;27;20342;-29
2022/03/09 09:36:22;;;;;;;;;;;13.10;78.80;;;;;;5313542;27;19919;-30
2022/03/09 09:38:53;;;;;;;;;;;13.20;78.80;;;;;;5313461;27;19923;-30
2022/03/09 09:41:26;;;;;;;;;;;13.20;78.70;;;;;;5295101;27;20383;-30
2022/03/09 09:43:57;;;;;;;;;;;13.20;78.70;;;;;;5313063;27;19961;-30
2022/03/09 09:46:27;;;;;;;;;;;13.30;78.60;;;;;;5313233;27;19966;-29
2022/03/09 09:48:59;;;;;;;;;;;13.30;78.50;;;;;;5313204;27;20376;-29
2022/03/09 09:51:30;;;;;;;;;;;13.30;78.50;;;;;;5294768;27;19954;-32
2022/03/09 09:54:01;;;;;;;;;;;13.30;78.40;;;;;;5294664;27;19920;-29
2022/03/09 09:56:35;;;;;;;;;;;13.30;78.40;;;;;;5313335;27;19926;-34
2022/03/09 09:59:06;;;;;;;;;;;13.40;78.40;;;;;;5313308;27;19919;-31
2022/03/09 10:01:38;;;;;;;;;;;13.40;78.40;;;;;;5294718;27;19984;-32
2022/03/09 10:04:13;;;;;;;;;;;13.50;78.50;;;;;;5313198;27;19920;-31
2022/03/09 10:06:44;;;;;;;;;;;13.40;78.70;;;;;;5295100;27;19972;-29
2022/03/09 10:09:15;;;;;;;;;;;13.40;78.60;;;;;;5294668;27;20326;-34
2022/03/09 10:11:53;;;;;;;;;;;13.40;78.50;;;;;;5277859;27;19926;-30
2022/03/09 10:14:42;;;;;;;;;;;13.40;79.00;;;;;;5276545;27;19919;-29
2022/03/09 10:17:20;;;;;;;;;;;13.50;78.80;;;;;;5312530;27;20018;-29
2022/03/09 10:20:00;;;;;;;;;;;13.40;78.60;;;;;;5313059;27;19927;-29
2022/03/09 10:22:33;;;;;;;;;;;13.40;78.70;;;;;;5294848;27;19920;-31
2022/03/09 10:25:08;;;;;;;;;;;13.50;78.80;;;;;;5312610;27;20010;-30
2022/03/09 10:27:40;;;;;;;;;;;13.40;78.80;;;;;;5294640;27;20373;-29
2022/03/09 10:30:12;;;;;;;;;;;13.50;78.80;;;;;;5312650;27;19919;-30
2022/03/09 10:32:47;;;;;;;;;;;13.40;79.10;;;;;;5312404;27;19926;-30
2022/03/09 10:35:19;;;;;;;;;;;13.50;79.10;;;;;;5293683;27;19923;-31
2022/03/09 10:37:50;;;;;;;;;;;13.50;78.90;;;;;;5312376;27;19941;-32
2022/03/09 10:40:22;;;;;;;;;;;13.60;78.60;;;;;;5294494;27;19927;-30
2022/03/09 10:43:08;;;;;;;;;;;13.60;78.40;;;;;;5312451;27;19919;-30
2022/03/09 10:45:58;;;;;;;;;;;13.60;78.20;;;;;;5312321;27;20402;-30
2022/03/09 10:48:50;;;;;;;;;;;13.60;78.10;;;;;;5312078;27;19929;-31
2022/03/09 10:51:34;;;;;;;;;;;13.60;78.20;;;;;;5312097;27;19964;-30
2022/03/09 10:54:16;;;;;;;;;;;13.60;78.40;;;;;;5312034;27;20398;-31
2022/03/09 10:56:48;;;;;;;;;;;13.60;78.30;;;;;;5294137;27;19943;-30
2022/03/09 10:59:20;;;;;;;;;;;13.60;78.50;;;;;;5293768;28;20284;-30
2022/03/09 11:02:04;;;;;;;;;;;13.60;78.40;;;;;;5293031;28;19966;-30
2022/03/09 11:04:36;;;;;;;;;;;13.60;78.20;;;;;;5311871;28;20293;-29
2022/03/09 11:07:09;;;;;;;;;;;13.60;78.00;;;;;;5311868;28;19919;-36
2022/03/09 11:09:41;;;;;;;;;;;13.60;78.10;;;;;;5311852;28;19919;-31
2022/03/09 11:12:12;;;;;;;;;;;13.60;78.10;;;;;;5293331;28;19973;-34
2022/03/09 11:14:44;;;;;;;;;;;13.70;77.70;;;;;;5293364;28;19962;-30
2022/03/09 11:17:16;;;;;;;;;;;13.70;77.30;;;;;;5311838;28;19919;-30
2022/03/09 11:19:48;;;;;;;;;;;13.70;77.00;;;;;;5294044;28;20253;-31
2022/03/09 11:22:19;;;;;;;;;;;13.70;77.00;;;;;;5311698;28;19962;-38
2022/03/09 11:24:51;;;;;;;;;;;13.70;76.90;;;;;;5311767;28;19969;-36
2022/03/09 11:27:22;;;;;;;;;;;13.70;76.60;;;;;;5293198;28;19919;-31
2022/03/09 11:29:57;;;;;;;;;;;13.70;76.40;;;;;;5287092;28;19920;-30
2022/03/09 11:32:34;;;;;;;;;;;13.70;76.30;;;;;;5290170;28;19919;-30
2022/03/09 11:35:28;;;;;;;;;;;13.70;76.20;;;;;;5289949;28;19988;-29
2022/03/09 11:38:29;;;;;;;;;;;13.60;76.40;;;;;;5228874;28;19927;-35
2022/03/09 11:41:15;;;;;;;;;;;13.60;76.30;;;;;;5183609;28;19928;-29
2022/03/09 11:44:19;;;;;;;;;;;13.60;76.30;;;;;;5182573;28;19922;-31
2022/03/09 11:57:25;;;;;;;;;;;13.60;76.30;;;;;;5187950;28;19909;-30
2022/03/09 11:59:57;;;;;;;;;;;13.60;76.40;;;;;;5172192;28;20329;-29
2022/03/09 12:02:38;;;;;;;;;;;13.60;76.40;;;;;;5187903;28;19937;-30
2022/03/09 12:05:25;;;;;;;;;;;13.60;76.50;;;;;;5171927;28;20409;-30
2022/03/09 12:07:59;;;;;;;;;;;13.60;76.80;;;;;;5188325;28;19922;-29
2022/03/09 12:10:51;;;;;;;;;;;13.60;76.70;;;;;;5171942;28;19929;-30
2022/03/09 12:13:23;;;;;;;;;;;13.60;76.60;;;;;;5187913;28;19921;-30
2022/03/09 12:16:19;;;;;;;;;;;13.60;76.10;;;;;;5186825;28;19925;-32
2022/03/09 12:18:56;;;;;;;;;;;13.60;75.80;;;;;;5186939;28;19956;-33
2022/03/09 12:21:29;;;;;;;;;;;13.60;75.40;;;;;;5187350;28;19936;-39
2022/03/09 12:24:09;;;;;;;;;;;13.70;75.40;;;;;;5187474;28;20406;-40
2022/03/09 12:27:18;;;;;;;;;;;13.70;75.50;;;;;;5171008;28;19921;-36
2022/03/09 12:29:49;;;;;;;;;;;12.80;78.30;;;;;;5127050;29;20292;-33
2022/03/09 12:32:24;;;;;;;;;;;11.90;80.20;;;;;;5111700;29;20025;-31
2022/03/09 12:34:55;;;;;;;;;;;11.40;81.60;;;;;;5132107;28;20037;-33
2022/03/09 12:37:26;;;;;;;;;;;11.20;82.00;;;;;;5167053;28;19929;-33
2022/03/09 12:40:02;;;;;;;;;;;11.10;82.40;;;;;;5150845;28;20415;-36
2022/03/09 12:42:35;;;;;;;;;;;11.00;84.20;;;;;;5166858;28;19944;-37
2022/03/09 12:45:24;;;;;;;;;;;10.90;84.20;;;;;;5150692;28;19921;-38
2022/03/09 13:13:13;;;;;;;;;;;11.00;84.80;;;;;;5250735;28;20003;-40
2022/03/09 13:15:46;;;;;;;;;;;11.00;84.40;;;;;;5250607;28;19995;-36
2022/03/09 13:18:27;;;;;;;;;;;11.00;85.80;;;;;;5249559;28;19921;-39
2022/03/09 13:20:59;;;;;;;;;;;11.00;84.20;;;;;;5250618;28;20289;-30
2022/03/09 13:23:35;;;;;;;;;;;11.00;84.00;;;;;;5249356;28;19920;-29
2022/03/09 13:26:26;;;;;;;;;;;11.00;84.10;;;;;;5250335;28;19920;-34
2022/03/09 13:28:57;;;;;;;;;;;11.00;85.80;;;;;;5250599;28;19920;-34
2022/03/09 13:31:43;;;;;;;;;;;11.00;85.70;;;;;;5250358;28;19924;-32
2022/03/09 13:34:32;;;;;;;;;;;10.90;84.80;;;;;;5249870;28;19935;-34
2022/03/09 13:37:42;;;;;;;;;;;11.00;84.20;;;;;;5248988;28;19920;-35
2022/03/09 13:40:47;;;;;;;;;;;11.10;84.00;;;;;;5169391;28;20016;-32
2022/03/09 13:43:27;;;;;;;;;;;11.10;84.90;;;;;;5185710;28;19921;-30
2022/03/09 13:46:21;;;;;;;;;;;11.10;84.10;;;;;;5145073;28;20389;-31
2022/03/09 13:49:07;;;;;;;;;;;11.20;84.60;;;;;;5145389;28;19922;-31
2022/03/09 13:51:38;;;;;;;;;;;11.20;84.00;;;;;;5129067;28;19921;-32
2022/03/09 13:54:09;;;;;;;;;;;11.30;84.20;;;;;;5145848;28;19953;-33
2022/03/09 13:56:40;;;;;;;;;;;11.40;82.60;;;;;;5145696;28;19926;-30
2022/03/09 13:59:11;;;;;;;;;;;11.40;84.40;;;;;;5145118;28;20016;-38
2022/03/09 14:01:42;;;;;;;;;;;11.50;83.50;;;;;;5129472;28;20016;-37
2022/03/09 14:04:13;;;;;;;;;;;11.50;83.40;;;;;;5145252;28;19922;-30
2022/03/09 14:06:53;;;;;;;;;;;11.60;83.20;;;;;;5145177;28;20414;-29
2022/03/09 14:09:24;;;;;;;;;;;11.60;81.90;;;;;;5145342;28;19922;-38
2022/03/09 14:11:55;;;;;;;;;;;11.60;84.40;;;;;;5155044;28;19932;-30
2022/03/09 14:14:27;;;;;;;;;;;11.60;82.40;;;;;;5164887;28;19932;-29
2022/03/09 14:16:59;;;;;;;;;;;11.60;83.80;;;;;;5164037;28;20335;-32
2022/03/09 14:19:30;;;;;;;;;;;11.60;84.80;;;;;;5225459;28;19921;-32
2022/03/09 14:22:01;;;;;;;;;;;11.60;83.30;;;;;;5225178;28;20401;-33
2022/03/09 14:24:33;;;;;;;;;;;11.60;83.50;;;;;;5226103;28;19920;-36
2022/03/09 14:27:04;;;;;;;;;;;11.60;85.30;;;;;;5209825;28;20031;-32
2022/03/09 14:29:35;;;;;;;;;;;11.60;84.10;;;;;;5244819;28;19919;-30
2022/03/09 14:32:06;;;;;;;;;;;11.50;84.10;;;;;;5269776;28;19981;-33
2022/03/09 14:34:37;;;;;;;;;;;11.50;84.40;;;;;;5268527;28;19960;-33
2022/03/09 14:37:12;;;;;;;;;;;11.50;85.40;;;;;;5270199;28;19931;-30
2022/03/09 14:39:46;;;;;;;;;;;11.40;84.90;;;;;;5269852;28;19920;-39
2022/03/09 14:42:17;;;;;;;;;;;11.40;85.50;;;;;;5269995;28;20006;-29
2022/03/09 14:44:48;;;;;;;;;;;11.40;85.20;;;;;;5269488;28;19927;-36
2022/03/09 14:47:19;;;;;;;;;;;11.40;85.50;;;;;;5270244;28;19924;-40
2022/03/09 14:49:51;;;;;;;;;;;11.50;86.00;;;;;;5270095;28;19920;-38
2022/03/09 14:52:22;;;;;;;14.47;10.07;;;11.70;85.40;;;;;;5269265;28;19920;-35
2022/03/09 14:54:53;;;;;;;13.47;9.37;;;12.00;85.10;;;;;;5269649;28;20040;-29
2022/03/09 14:57:24;;;;;;;11.97;8.47;;;12.20;84.50;;;;;;5251023;28;20125;-37
2022/03/09 14:59:55;;;;;;;;;;;12.30;83.20;;;;;;5270043;28;20070;-31
2022/03/09 15:02:26;;;;;;;;;;;12.40;82.40;;;;;;5270063;28;19959;-37
2022/03/09 15:05:00;;;;;;;;;;;12.60;82.10;;;;;;5270155;28;19920;-31
2022/03/09 15:08:02;;;;;;;;;;;12.60;81.80;;;;;;5268348;28;19920;-35
2022/03/09 15:10:34;;;;;;;;;;;12.70;81.50;;;;;;5269744;28;19927;-34
2022/03/09 15:13:08;;;;;;;;;;;12.80;81.20;;;;;;5289320;28;20368;-36
2022/03/09 15:15:41;;;;;;;;;;;12.90;81.20;;;;;;5291003;28;19920;-31
2022/03/09 15:18:13;;;;;;;;;;;12.90;81.30;;;;;;5290753;28;19920;-37
2022/03/09 15:20:44;;;;;;;;;;;13.00;81.50;;;;;;5273221;28;19919;-30